Time;durP1;ratioP1;P1;durP2;ratioP2;P2;SDS_P1;SDS_P2;PMS_P1;PMS_P2;Temp;Humidity;BMP_temperature;BMP_pressure;BME280_temperature;BME280_humidity;BME280_pressure;Samples;Min_cycle;Max_cycle;Signal;HPM_P1;HPM_P2
2021/04/29 00:01:57;;;;;;;12.98;9.48;;;;;;;;;;5024730;28;20499;-69
2021/04/29 00:04:23;;;;;;;14.82;9.75;;;;;;;;;;5032490;28;20025;-69
2021/04/29 00:06:49;;;;;;;15.60;8.88;;;;;;;;;;5026380;28;20522;-71
2021/04/29 00:09:15;;;;;;;15.35;9.73;;;;;;;;;;5030867;28;20064;-70
2021/04/29 00:11:41;;;;;;;19.13;10.10;;;;;;;;;;5027055;28;20032;-71
2021/04/29 00:14:09;;;;;;;15.57;10.20;;;;;;;;;;5030381;28;20029;-71
2021/04/29 00:16:35;;;;;;;14.98;9.75;;;;;;;;;;5027864;28;20112;-71
2021/04/29 00:19:01;;;;;;;20.35;10.85;;;;;;;;;;5032106;28;20112;-70
2021/04/29 00:21:28;;;;;;;17.45;10.85;;;;;;;;;;5026906;28;20030;-70
2021/04/29 00:23:54;;;;;;;21.05;10.27;;;;;;;;;;5027802;28;20385;-71
2021/04/29 00:26:20;;;;;;;16.27;9.73;;;;;;;;;;5030090;28;20029;-71
2021/04/29 00:28:45;;;;;;;15.25;10.00;;;;;;;;;;5035428;28;20643;-70
2021/04/29 00:31:11;;;;;;;12.00;9.25;;;;;;;;;;5036875;28;20320;-70
2021/04/29 00:33:37;;;;;;;19.80;11.13;;;;;;;;;;5027319;28;20033;-71
2021/04/29 00:36:04;;;;;;;16.15;10.65;;;;;;;;;;5028947;28;20112;-70
2021/04/29 00:38:31;;;;;;;16.67;10.40;;;;;;;;;;5035190;28;20025;-71
2021/04/29 00:40:57;;;;;;;13.70;10.43;;;;;;;;;;5021594;28;20045;-71
2021/04/29 00:43:23;;;;;;;17.50;10.45;;;;;;;;;;5026544;28;20024;-70
2021/04/29 00:45:49;;;;;;;19.27;11.15;;;;;;;;;;5031022;28;20025;-70
2021/04/29 00:48:15;;;;;;;17.73;11.05;;;;;;;;;;5031426;28;20111;-70
2021/04/29 00:50:42;;;;;;;16.13;10.48;;;;;;;;;;5023716;28;20566;-71
2021/04/29 00:53:08;;;;;;;17.63;11.00;;;;;;;;;;5029160;28;20119;-70
2021/04/29 00:55:34;;;;;;;15.82;10.27;;;;;;;;;;5023623;28;20022;-70
2021/04/29 00:58:01;;;;;;;17.83;11.75;;;;;;;;;;5033552;28;20144;-68
2021/04/29 01:00:27;;;;;;;17.23;11.20;;;;;;;;;;5032371;28;20033;-70
2021/04/29 01:02:55;;;;;;;15.77;9.48;;;;;;;;;;5027303;28;20026;-71
2021/04/29 01:05:23;;;;;;;15.32;9.55;;;;;;;;;;5029434;28;20025;-70
2021/04/29 01:07:57;;;;;;;16.20;10.13;;;;;;;;;;5027687;28;20394;-71
2021/04/29 01:10:26;;;;;;;16.45;10.40;;;;;;;;;;5029348;28;20029;-71
2021/04/29 01:13:04;;;;;;;17.30;10.63;;;;;;;;;;5017428;28;20460;-70
2021/04/29 01:15:30;;;;;;;18.10;10.93;;;;;;;;;;5021924;28;20030;-71
2021/04/29 01:17:56;;;;;;;20.13;11.25;;;;;;;;;;5027322;28;20073;-71
2021/04/29 01:20:30;;;;;;;16.70;10.13;;;;;;;;;;5023087;28;20107;-70
2021/04/29 01:23:12;;;;;;;16.25;9.93;;;;;;;;;;5034820;28;20024;-71
2021/04/29 01:25:40;;;;;;;17.80;10.27;;;;;;;;;;5037061;28;20034;-71
2021/04/29 01:28:06;;;;;;;18.58;10.93;;;;;;;;;;5032779;28;20061;-71
2021/04/29 01:30:32;;;;;;;18.77;10.77;;;;;;;;;;5036417;28;20049;-70
2021/04/29 01:32:58;;;;;;;16.23;11.18;;;;;;;;;;5031950;28;20017;-70
2021/04/29 01:35:24;;;;;;;18.38;10.77;;;;;;;;;;5022434;28;20478;-71
2021/04/29 01:37:51;;;;;;;22.35;12.40;;;;;;;;;;5027772;28;20068;-71
2021/04/29 01:40:18;;;;;;;22.98;13.23;;;;;;;;;;5022831;28;20025;-71
2021/04/29 01:42:44;;;;;;;23.13;12.32;;;;;;;;;;5040811;28;20498;-71
2021/04/29 01:45:10;;;;;;;19.95;12.05;;;;;;;;;;5024048;28;20026;-71
2021/04/29 01:47:36;;;;;;;19.60;12.57;;;;;;;;;;5035646;28;20100;-71
2021/04/29 01:50:04;;;;;;;18.13;12.20;;;;;;;;;;5021640;28;20030;-71
2021/04/29 01:52:30;;;;;;;18.73;11.98;;;;;;;;;;5026899;28;20024;-71
2021/04/29 01:54:56;;;;;;;22.40;11.63;;;;;;;;;;5030936;28;20033;-71
2021/04/29 01:57:22;;;;;;;18.33;12.20;;;;;;;;;;5055483;28;20037;-71
2021/04/29 01:59:48;;;;;;;17.15;11.40;;;;;;;;;;5030063;28;20099;-70
2021/04/29 02:02:14;;;;;;;25.35;12.77;;;;;;;;;;5037334;28;20026;-70
2021/04/29 02:04:40;;;;;;;21.00;12.10;;;;;;;;;;5040318;28;20104;-71
2021/04/29 02:07:06;;;;;;;20.95;12.32;;;;;;;;;;5021612;28;20114;-71
2021/04/29 02:09:32;;;;;;;22.65;12.73;;;;;;;;;;5025896;28;20822;-71
2021/04/29 02:12:00;;;;;;;17.30;11.43;;;;;;;;;;5028551;28;20033;-69
2021/04/29 02:14:30;;;;;;;19.48;12.00;;;;;;;;;;5030199;28;20029;-69
2021/04/29 02:16:56;;;;;;;;;;;;;;;;;;5020832;28;20379;-69
2021/04/29 02:19:23;;;;;;;18.42;11.10;;;;;;;;;;5026997;28;19917;-71
2021/04/29 02:21:49;;;;;;;18.17;11.70;;;;;;;;;;5028832;28;20024;-70
2021/04/29 02:24:16;;;;;;;21.40;12.20;;;;;;;;;;5020946;28;20057;-71
2021/04/29 02:26:42;;;;;;;21.17;11.82;;;;;;;;;;5023634;28;20033;-71
2021/04/29 02:29:08;;;;;;;22.25;13.18;;;;;;;;;;5037032;28;20065;-71
2021/04/29 02:31:38;;;;;;;21.85;12.02;;;;;;;;;;5026982;28;20060;-71
2021/04/29 02:34:04;;;;;;;17.83;12.73;;;;;;;;;;5038373;28;20030;-69
2021/04/29 02:36:31;;;;;;;24.73;13.38;;;;;;;;;;5030093;28;20025;-71
2021/04/29 02:38:57;;;;;;;23.52;13.90;;;;;;;;;;5024068;28;20029;-69
2021/04/29 02:41:23;;;;;;;24.58;14.65;;;;;;;;;;5017608;28;20076;-68
2021/04/29 02:43:50;;;;;;;24.40;15.13;;;;;;;;;;5026361;28;20026;-68
2021/04/29 02:46:16;;;;;;;22.63;13.07;;;;;;;;;;5024303;28;20609;-69
2021/04/29 02:48:42;;;;;;;30.02;14.88;;;;;;;;;;5021575;28;20032;-68
2021/04/29 02:51:08;;;;;;;23.30;14.00;;;;;;;;;;5029035;28;20029;-68
2021/04/29 02:53:35;;;;;;;25.08;13.63;;;;;;;;;;5031078;28;20428;-69
2021/04/29 02:56:01;;;;;;;23.98;13.45;;;;;;;;;;5023979;28;20030;-71
2021/04/29 02:58:27;;;;;;;24.80;13.95;;;;;;;;;;5024411;28;20072;-69
2021/04/29 03:00:54;;;;;;;22.80;14.05;;;;;;;;;;5024037;28;20025;-70
2021/04/29 03:03:20;;;;;;;21.10;13.70;;;;;;;;;;5033891;28;20082;-69
2021/04/29 03:05:48;;;;;;;19.10;13.68;;;;;;;;;;5037388;28;20421;-69
2021/04/29 03:08:14;;;;;;;25.67;13.93;;;;;;;;;;5025674;28;20018;-69
2021/04/29 03:10:39;;;;;;;27.67;14.30;;;;;;;;;;5026456;28;20018;-69
2021/04/29 03:13:05;;;;;;;31.65;14.98;;;;;;;;;;5030974;28;20348;-70
2021/04/29 03:15:31;;;;;;;25.95;15.98;;;;;;;;;;5035238;28;20359;-69
2021/04/29 03:17:57;;;;;;;29.95;15.82;;;;;;;;;;5023647;28;20030;-70
2021/04/29 03:20:24;;;;;;;28.40;14.68;;;;;;;;;;5027837;28;20025;-69
2021/04/29 03:22:50;;;;;;;28.27;13.98;;;;;;;;;;5025393;28;20490;-69
2021/04/29 03:25:16;;;;;;;30.55;15.65;;;;;;;;;;5025905;28;20029;-69
2021/04/29 03:27:41;;;;;;;30.33;14.90;;;;;;;;;;5030449;28;20025;-69
2021/04/29 03:30:08;;;;;;;27.08;15.30;;;;;;;;;;5027670;28;20120;-69
2021/04/29 03:32:34;;;;;;;27.00;15.05;;;;;;;;;;5025474;28;20039;-70
2021/04/29 03:35:00;;;;;;;26.60;16.25;;;;;;;;;;5032971;28;20087;-70
2021/04/29 03:37:26;;;;;;;27.63;13.80;;;;;;;;;;5027306;28;20483;-70
2021/04/29 03:39:52;;;;;;;29.27;16.65;;;;;;;;;;5031873;28;20021;-70
2021/04/29 03:42:18;;;;;;;33.53;17.17;;;;;;;;;;5033795;28;20126;-69
2021/04/29 03:44:44;;;;;;;29.52;15.60;;;;;;;;;;5035701;28;20028;-69
2021/04/29 03:47:10;;;;;;;32.28;16.55;;;;;;;;;;5030004;28;20028;-70
2021/04/29 03:49:36;;;;;;;28.73;15.25;;;;;;;;;;5034084;28;20040;-69
2021/04/29 03:52:02;;;;;;;31.73;16.77;;;;;;;;;;5032716;28;20057;-71
2021/04/29 03:54:28;;;;;;;34.45;16.10;;;;;;;;;;5027012;28;20022;-69
2021/04/29 03:56:54;;;;;;;35.42;17.13;;;;;;;;;;5037795;28;20474;-69
2021/04/29 03:59:21;;;;;;;36.30;16.60;;;;;;;;;;5035138;28;20395;-70
2021/04/29 04:01:47;;;;;;;37.90;18.23;;;;;;;;;;5025457;28;20055;-70
2021/04/29 04:04:13;;;;;;;41.60;17.92;;;;;;;;;;5026662;28;20026;-70
2021/04/29 04:06:38;;;;;;;36.38;17.05;;;;;;;;;;5025271;28;20033;-70
2021/04/29 04:09:04;;;;;;;35.15;16.70;;;;;;;;;;5026804;28;20029;-70
2021/04/29 04:11:31;;;;;;;39.22;18.23;;;;;;;;;;5031240;28;20074;-69
2021/04/29 04:13:57;;;;;;;35.53;17.33;;;;;;;;;;5038325;28;20033;-68
2021/04/29 04:16:24;;;;;;;32.88;16.90;;;;;;;;;;5019295;28;20079;-71
2021/04/29 04:18:50;;;;;;;32.40;17.13;;;;;;;;;;5021327;28;20073;-69
2021/04/29 04:21:15;;;;;;;38.38;18.42;;;;;;;;;;5028608;28;20025;-72
2021/04/29 04:23:41;;;;;;;32.20;16.40;;;;;;;;;;5029392;28;20513;-71
2021/04/29 04:26:07;;;;;;;39.50;18.75;;;;;;;;;;5021404;28;20038;-69
2021/04/29 04:28:33;;;;;;;38.17;21.33;;;;;;;;;;5035808;28;20028;-70
2021/04/29 04:31:00;;;;;;;40.75;20.08;;;;;;;;;;5040622;28;20057;-68
2021/04/29 04:33:26;;;;;;;37.22;18.65;;;;;;;;;;5026929;28;20078;-69
2021/04/29 04:35:52;;;;;;;34.95;18.90;;;;;;;;;;5028878;28;20040;-69
2021/04/29 04:38:18;;;;;;;34.67;19.05;;;;;;;;;;5041164;28;20028;-70
2021/04/29 04:40:45;;;;;;;37.15;18.67;;;;;;;;;;5036006;28;20467;-69
2021/04/29 04:43:11;;;;;;;33.63;18.17;;;;;;;;;;5028911;28;20072;-69
2021/04/29 04:45:37;;;;;;;39.80;19.58;;;;;;;;;;5032579;28;20467;-69
2021/04/29 04:48:03;;;;;;;32.55;17.65;;;;;;;;;;5030194;28;20022;-69
2021/04/29 04:50:29;;;;;;;39.55;18.95;;;;;;;;;;5031537;28;20030;-68
2021/04/29 04:52:55;;;;;;;32.80;16.13;;;;;;;;;;5029598;28;20017;-68
2021/04/29 04:55:21;;;;;;;33.13;17.83;;;;;;;;;;5032209;28;20021;-69
2021/04/29 04:57:47;;;;;;;32.35;18.65;;;;;;;;;;5040120;28;20024;-69
2021/04/29 05:00:13;;;;;;;33.90;17.75;;;;;;;;;;5038190;28;20026;-69
2021/04/29 05:02:39;;;;;;;32.03;17.45;;;;;;;;;;5043933;28;20041;-69
2021/04/29 05:05:05;;;;;;;34.15;17.52;;;;;;;;;;5049840;28;20037;-70
2021/04/29 05:07:32;;;;;;;35.80;16.52;;;;;;;;;;5033667;28;20028;-69
2021/04/29 05:09:58;;;;;;;31.70;17.25;;;;;;;;;;5045371;28;20023;-70
2021/04/29 05:12:24;;;;;;;37.72;18.67;;;;;;;;;;5062190;28;20025;-69
2021/04/29 05:14:50;;;;;;;33.22;16.95;;;;;;;;;;5039657;28;20041;-69
2021/04/29 05:17:16;;;;;;;34.17;17.33;;;;;;;;;;5035135;28;20438;-68
2021/04/29 05:19:44;;;;;;;33.50;18.52;;;;;;;;;;5036310;28;20033;-69
2021/04/29 05:22:10;;;;;;;39.40;18.10;;;;;;;;;;5033565;28;20016;-69
2021/04/29 05:24:36;;;;;;;32.75;18.85;;;;;;;;;;5033521;28;20024;-69
2021/04/29 05:27:02;;;;;;;39.40;19.42;;;;;;;;;;5031630;28;20030;-69
2021/04/29 05:29:28;;;;;;;33.58;18.45;;;;;;;;;;5029595;28;20402;-69
2021/04/29 05:31:54;;;;;;;32.22;19.80;;;;;;;;;;5028933;28;20033;-69
2021/04/29 05:34:20;;;;;;;36.50;19.15;;;;;;;;;;5031000;28;20025;-69
2021/04/29 05:36:46;;;;;;;38.42;20.70;;;;;;;;;;5029324;28;20395;-69
2021/04/29 05:39:12;;;;;;;36.60;19.08;;;;;;;;;;5027036;28;20030;-69
2021/04/29 05:41:38;;;;;;;43.55;19.95;;;;;;;;;;5033390;28;20025;-70
2021/04/29 05:44:04;;;;;;;33.15;18.33;;;;;;;;;;5025860;28;20022;-69
2021/04/29 05:46:31;;;;;;;31.67;18.05;;;;;;;;;;5039445;28;20031;-69
2021/04/29 05:48:57;;;;;;;29.95;18.65;;;;;;;;;;5029240;28;20356;-69
2021/04/29 05:51:23;;;;;;;31.83;18.55;;;;;;;;;;5025172;28;20039;-69
2021/04/29 05:53:48;;;;;;;35.70;17.83;;;;;;;;;;5014962;28;20038;-69
2021/04/29 05:56:15;;;;;;;30.00;16.98;;;;;;;;;;5012280;28;20048;-69
2021/04/29 05:58:42;;;;;;;28.35;16.17;;;;;;;;;;5016541;28;20029;-69
2021/04/29 06:01:08;;;;;;;22.55;15.07;;;;;;;;;;5027260;28;20076;-69
2021/04/29 06:03:34;;;;;;;26.73;14.93;;;;;;;;;;5019540;28;20438;-69
2021/04/29 06:06:00;;;;;;;32.65;14.90;;;;;;;;;;5016358;28;20083;-68
2021/04/29 06:08:26;;;;;;;25.45;14.30;;;;;;;;;;5033082;28;20108;-67
2021/04/29 06:10:52;;;;;;;23.98;13.88;;;;;;;;;;5016723;28;20037;-67
2021/04/29 06:13:18;;;;;;;28.27;14.35;;;;;;;;;;5017897;28;20037;-66
2021/04/29 06:15:44;;;;;;;20.63;13.95;;;;;;;;;;5019447;28;20022;-67
2021/04/29 06:18:10;;;;;;;24.27;15.55;;;;;;;;;;5025198;28;20052;-67
2021/04/29 06:20:36;;;;;;;21.65;14.57;;;;;;;;;;5023839;28;20357;-68
2021/04/29 06:23:02;;;;;;;19.63;13.45;;;;;;;;;;5021096;28;20022;-67
2021/04/29 06:25:28;;;;;;;22.90;14.05;;;;;;;;;;5022845;28;20032;-67
2021/04/29 06:27:54;;;;;;;22.60;14.57;;;;;;;;;;5018866;28;20298;-68
2021/04/29 06:30:20;;;;;;;25.17;13.52;;;;;;;;;;5020366;28;20128;-68
2021/04/29 06:32:46;;;;;;;18.35;13.55;;;;;;;;;;5020226;28;20034;-68
2021/04/29 06:35:12;;;;;;;21.02;13.43;;;;;;;;;;5024509;28;20116;-68
2021/04/29 06:37:38;;;;;;;20.67;12.90;;;;;;;;;;5028409;28;20480;-68
2021/04/29 06:40:05;;;;;;;21.70;12.77;;;;;;;;;;5019257;28;20109;-68
2021/04/29 06:42:31;;;;;;;19.17;12.40;;;;;;;;;;5017371;28;20025;-67
2021/04/29 06:44:57;;;;;;;22.98;12.35;;;;;;;;;;5016313;28;20029;-70
2021/04/29 06:47:26;;;;;;;22.65;13.32;;;;;;;;;;5015514;28;20025;-70
2021/04/29 06:49:52;;;;;;;18.33;12.30;;;;;;;;;;5025789;28;20113;-68
2021/04/29 06:52:20;;;;;;;26.67;14.38;;;;;;;;;;5018996;28;20112;-70
2021/04/29 06:54:46;;;;;;;24.55;13.00;;;;;;;;;;5015552;28;20052;-68
2021/04/29 06:57:12;;;;;;;20.55;13.60;;;;;;;;;;5014975;28;20034;-67
2021/04/29 06:59:38;;;;;;;19.55;12.98;;;;;;;;;;5020756;28;20747;-68
2021/04/29 07:02:04;;;;;;;21.90;13.45;;;;;;;;;;5025684;28;20049;-68
2021/04/29 07:04:31;;;;;;;18.17;13.25;;;;;;;;;;5022811;28;20053;-68
2021/04/29 07:06:57;;;;;;;23.02;13.13;;;;;;;;;;5030566;28;20025;-68
2021/04/29 07:09:23;;;;;;;21.05;13.38;;;;;;;;;;5032029;28;20021;-67
2021/04/29 07:11:49;;;;;;;19.95;12.85;;;;;;;;;;5034941;28;20538;-67
2021/04/29 07:14:14;;;;;;;19.15;12.68;;;;;;;;;;5019974;28;20050;-68
2021/04/29 07:16:40;;;;;;;18.92;13.23;;;;;;;;;;5020521;28;20030;-67
2021/04/29 07:19:06;;;;;;;20.92;14.05;;;;;;;;;;5020919;28;20108;-68
2021/04/29 07:21:32;;;;;;;20.20;14.20;;;;;;;;;;5030903;28;20021;-68
2021/04/29 07:23:58;;;;;;;20.13;13.88;;;;;;;;;;5020839;28;20064;-68
2021/04/29 07:26:25;;;;;;;22.45;13.20;;;;;;;;;;5026712;28;20498;-67
2021/04/29 07:28:51;;;;;;;19.05;12.15;;;;;;;;;;5021217;28;20026;-67
2021/04/29 07:31:17;;;;;;;18.58;13.68;;;;;;;;;;5023246;28;20279;-67
2021/04/29 07:33:43;;;;;;;18.52;13.35;;;;;;;;;;5014050;28;20025;-68
2021/04/29 07:36:09;;;;;;;21.30;13.57;;;;;;;;;;5035241;28;20052;-67
2021/04/29 07:38:35;;;;;;;21.17;13.02;;;;;;;;;;5033563;28;20033;-69
2021/04/29 07:41:02;;;;;;;18.70;13.35;;;;;;;;;;5035302;28;20072;-68
2021/04/29 07:43:27;;;;;;;19.25;12.77;;;;;;;;;;5019520;28;20029;-69
2021/04/29 07:45:53;;;;;;;21.83;13.68;;;;;;;;;;5014708;28;20028;-69
2021/04/29 07:48:19;;;;;;;17.17;12.45;;;;;;;;;;5025835;28;20021;-69
2021/04/29 07:50:45;;;;;;;19.33;11.85;;;;;;;;;;5040428;28;20021;-69
2021/04/29 07:53:11;;;;;;;18.80;12.40;;;;;;;;;;5054513;28;20501;-70
2021/04/29 07:55:37;;;;;;;19.77;12.27;;;;;;;;;;5057968;28;20227;-69
2021/04/29 07:58:04;;;;;;;22.63;13.70;;;;;;;;;;5055384;28;20025;-70
2021/04/29 08:00:30;;;;;;;21.48;14.65;;;;;;;;;;5037311;28;20029;-69
2021/04/29 08:02:56;;;;;;;20.10;12.77;;;;;;;;;;5018970;28;20402;-69
2021/04/29 08:05:22;;;;;;;20.40;12.85;;;;;;;;;;5038184;28;20104;-69
2021/04/29 08:07:50;;;;;;;19.08;12.30;;;;;;;;;;5039008;28;20140;-69
2021/04/29 08:10:16;;;;;;;19.83;12.88;;;;;;;;;;5031222;28;20068;-69
2021/04/29 08:12:42;;;;;;;20.85;13.20;;;;;;;;;;5028850;28;20487;-69
2021/04/29 08:15:08;;;;;;;18.60;13.13;;;;;;;;;;5030045;28;20060;-69
2021/04/29 08:17:34;;;;;;;18.85;13.63;;;;;;;;;;5018181;28;20236;-69
2021/04/29 08:20:00;;;;;;;18.15;12.25;;;;;;;;;;5024701;28;20040;-69
2021/04/29 08:22:27;;;;;;;16.70;13.25;;;;;;;;;;5025032;28;20028;-69
2021/04/29 08:24:56;;;;;;;16.50;12.40;;;;;;;;;;5031074;28;20022;-69
2021/04/29 08:27:23;;;;;;;17.63;11.95;;;;;;;;;;5029462;28;20386;-69
2021/04/29 08:29:49;;;;;;;15.98;12.65;;;;;;;;;;5038365;28;20068;-69
2021/04/29 08:32:15;;;;;;;18.58;12.95;;;;;;;;;;5025954;28;20092;-68
2021/04/29 08:34:41;;;;;;;16.13;11.40;;;;;;;;;;5033311;28;20429;-68
2021/04/29 08:37:07;;;;;;;20.08;13.45;;;;;;;;;;5034348;28;20029;-68
2021/04/29 08:39:33;;;;;;;20.92;12.82;;;;;;;;;;5023029;28;20030;-68
2021/04/29 08:41:59;;;;;;;20.38;14.10;;;;;;;;;;5025778;28;20072;-68
2021/04/29 08:44:25;;;;;;;22.55;12.98;;;;;;;;;;5025951;28;20483;-68
2021/04/29 08:46:51;;;;;;;22.23;13.77;;;;;;;;;;5023967;28;20549;-68
2021/04/29 08:49:17;;;;;;;19.95;13.27;;;;;;;;;;5036812;28;20030;-67
2021/04/29 08:51:46;;;;;;;22.15;14.07;;;;;;;;;;5021374;28;20032;-68
2021/04/29 08:54:12;;;;;;;19.98;14.23;;;;;;;;;;5038505;28;20033;-68
2021/04/29 08:56:38;;;;;;;20.20;14.20;;;;;;;;;;5027066;28;20078;-68
2021/04/29 08:59:04;;;;;;;21.38;13.80;;;;;;;;;;5022527;28;20033;-68
2021/04/29 09:01:44;;;;;;;19.08;13.35;;;;;;;;;;5032197;28;20048;-68
2021/04/29 09:04:17;;;;;;;20.92;14.80;;;;;;;;;;5017857;28;20468;-68
2021/04/29 09:06:44;;;;;;;19.73;13.95;;;;;;;;;;5028447;28;20033;-68
2021/04/29 09:09:11;;;;;;;21.98;13.98;;;;;;;;;;5024213;28;20425;-69
2021/04/29 09:11:47;;;;;;;18.42;13.75;;;;;;;;;;5024141;28;20554;-67
2021/04/29 09:14:13;;;;;;;18.55;12.95;;;;;;;;;;5028227;28;20037;-67
2021/04/29 09:16:41;;;;;;;22.95;14.38;;;;;;;;;;5023283;28;20442;-67
2021/04/29 09:19:16;;;;;;;24.20;13.48;;;;;;;;;;5027016;28;20515;-67
2021/04/29 09:21:42;;;;;;;23.77;14.20;;;;;;;;;;5025055;28;20026;-67
2021/04/29 09:24:08;;;;;;;20.60;12.98;;;;;;;;;;5031889;28;20029;-66
2021/04/29 09:26:34;;;;;;;26.55;13.93;;;;;;;;;;5026239;28;20029;-66
2021/04/29 09:29:07;;;;;;;22.15;13.88;;;;;;;;;;5024096;28;20032;-66
2021/04/29 09:31:37;;;;;;;20.75;13.65;;;;;;;;;;5018469;28;20149;-67
2021/04/29 09:34:03;;;;;;;23.08;13.20;;;;;;;;;;5029597;28;20041;-66
2021/04/29 09:36:33;;;;;;;24.17;12.98;;;;;;;;;;5028048;28;20025;-67
2021/04/29 09:39:01;;;;;;;17.85;11.77;;;;;;;;;;5021383;28;20022;-67
2021/04/29 09:41:29;;;;;;;21.40;12.95;;;;;;;;;;5025322;28;20024;-69
2021/04/29 09:43:56;;;;;;;20.15;14.57;;;;;;;;;;5019119;28;20029;-67
2021/04/29 09:46:22;;;;;;;17.17;12.13;;;;;;;;;;5027697;28;20549;-68
2021/04/29 09:48:49;;;;;;;20.35;13.10;;;;;;;;;;5030772;28;20057;-66
2021/04/29 09:51:18;;;;;;;17.00;11.75;;;;;;;;;;5022846;28;20033;-67
2021/04/29 09:53:47;;;;;;;17.88;12.85;;;;;;;;;;5027930;28;20075;-67
2021/04/29 09:56:13;;;;;;;21.77;13.52;;;;;;;;;;5018491;28;20026;-67
2021/04/29 09:58:56;;;;;;;22.08;13.07;;;;;;;;;;5019669;28;20098;-67
2021/04/29 10:01:25;;;;;;;18.27;12.65;;;;;;;;;;5020886;28;20422;-68
2021/04/29 10:03:50;;;;;;;19.58;13.65;;;;;;;;;;5026225;28;20105;-67
2021/04/29 10:06:17;;;;;;;24.38;13.77;;;;;;;;;;5024314;28;20101;-67
2021/04/29 10:08:43;;;;;;;22.58;13.50;;;;;;;;;;5013598;28;20030;-67
2021/04/29 10:11:09;;;;;;;21.45;14.38;;;;;;;;;;5029762;28;20022;-71
2021/04/29 10:13:42;;;;;;;23.35;14.52;;;;;;;;;;5022672;28;20369;-69
2021/04/29 10:16:08;;;;;;;21.23;14.13;;;;;;;;;;5017340;28;20037;-70
2021/04/29 10:18:34;;;;;;;17.17;13.20;;;;;;;;;;5015356;28;20034;-70
2021/04/29 10:21:01;;;;;;;20.50;14.38;;;;;;;;;;5013844;28;20041;-69
2021/04/29 10:23:27;;;;;;;22.75;14.75;;;;;;;;;;5015016;28;20036;-68
2021/04/29 10:26:00;;;;;;;23.70;15.18;;;;;;;;;;5015367;28;20475;-69
2021/04/29 10:28:41;;;;;;;25.13;14.57;;;;;;;;;;5016267;28;20067;-72
2021/04/29 10:31:19;;;;;;;21.55;14.98;;;;;;;;;;5017851;28;20420;-69
2021/04/29 10:33:49;;;;;;;25.45;15.13;;;;;;;;;;5029691;28;20018;-69
2021/04/29 10:36:15;;;;;;;21.63;14.70;;;;;;;;;;5032711;28;20072;-69
2021/04/29 10:38:41;;;;;;;20.25;14.63;;;;;;;;;;5015147;28;20038;-69
2021/04/29 10:41:21;;;;;;;20.65;14.30;;;;;;;;;;5013889;28;20022;-69
2021/04/29 10:43:47;;;;;;;24.88;14.70;;;;;;;;;;5011094;28;20116;-69
2021/04/29 10:46:24;;;;;;;23.27;15.05;;;;;;;;;;5019643;28;20341;-69
2021/04/29 10:48:51;;;;;;;21.10;14.20;;;;;;;;;;5014407;28;20041;-69
2021/04/29 10:51:19;;;;;;;22.35;15.43;;;;;;;;;;5013071;28;20506;-69
2021/04/29 10:53:46;;;;;;;23.25;15.07;;;;;;;;;;5021178;28;20025;-69
2021/04/29 10:56:19;;;;;;;24.88;14.88;;;;;;;;;;5015882;28;20030;-69
2021/04/29 10:58:45;;;;;;;20.45;14.32;;;;;;;;;;5015982;28;20033;-67
2021/04/29 11:01:18;;;;;;;25.58;15.73;;;;;;;;;;5018160;28;20033;-66
2021/04/29 11:03:48;;;;;;;24.48;14.63;;;;;;;;;;5011239;28;20022;-67
2021/04/29 11:06:15;;;;;;;30.95;16.50;;;;;;;;;;5025397;28;20574;-66
2021/04/29 11:08:43;;;;;;;26.33;16.10;;;;;;;;;;5013642;28;20117;-67
2021/04/29 11:11:27;;;;;;;25.08;15.43;;;;;;;;;;5014547;28;20061;-67
2021/04/29 11:14:13;;;;;;;26.88;16.50;;;;;;;;;;5019943;28;20025;-67
2021/04/29 11:16:46;;;;;;;26.55;15.25;;;;;;;;;;5016862;28;20117;-66
2021/04/29 11:19:31;;;;;;;28.35;14.35;;;;;;;;;;5024111;28;20191;-69
2021/04/29 11:22:12;;;;;;;21.20;12.98;;;;;;;;;;5011317;28;20446;-70
2021/04/29 11:24:49;;;;;;;25.05;13.63;;;;;;;;;;5016676;28;20037;-70
2021/04/29 11:27:19;;;;;;;25.98;12.88;;;;;;;;;;5016853;28;20032;-69
2021/04/29 11:29:45;;;;;;;26.83;15.27;;;;;;;;;;5014148;28;20034;-70
2021/04/29 11:32:11;;;;;;;26.48;15.27;;;;;;;;;;5012257;28;20079;-69
2021/04/29 11:34:44;;;;;;;26.08;13.20;;;;;;;;;;5015029;28;20529;-70
2021/04/29 11:37:11;;;;;;;20.15;11.35;;;;;;;;;;5016551;28;20115;-69
2021/04/29 11:39:37;;;;;;;20.08;12.23;;;;;;;;;;5025030;28;20026;-70
2021/04/29 11:42:03;;;;;;;30.75;12.85;;;;;;;;;;5015148;28;20022;-70
2021/04/29 11:44:29;;;;;;;19.45;10.70;;;;;;;;;;5023875;28;20387;-70
2021/04/29 11:46:55;;;;;;;17.15;8.80;;;;;;;;;;5026063;28;20029;-70
2021/04/29 11:49:21;;;;;;;25.83;9.95;;;;;;;;;;5024927;28;20022;-70
2021/04/29 11:51:49;;;;;;;19.17;8.32;;;;;;;;;;5019789;28;20642;-70
2021/04/29 11:54:17;;;;;;;16.13;7.55;;;;;;;;;;5011072;28;20104;-70
2021/04/29 11:56:43;;;;;;;13.57;7.05;;;;;;;;;;5018432;28;20029;-70
2021/04/29 11:59:10;;;;;;;21.10;8.75;;;;;;;;;;5017269;28;20093;-70
2021/04/29 12:01:36;;;;;;;20.17;7.88;;;;;;;;;;5016177;28;20534;-70
2021/04/29 12:04:16;;;;;;;21.55;8.20;;;;;;;;;;5011003;28;20084;-69
2021/04/29 12:06:51;;;;;;;14.35;6.30;;;;;;;;;;5018668;28;20113;-69
2021/04/29 12:09:21;;;;;;;24.10;6.32;;;;;;;;;;5016139;28;20148;-70
2021/04/29 12:11:48;;;;;;;25.83;9.15;;;;;;;;;;5012775;28;20018;-70
2021/04/29 12:14:15;;;;;;;19.17;7.47;;;;;;;;;;5014920;28;20022;-70
2021/04/29 12:16:41;;;;;;;22.42;6.90;;;;;;;;;;5019385;28;20030;-70
2021/04/29 12:19:07;;;;;;;20.73;8.38;;;;;;;;;;5022975;28;20038;-70
2021/04/29 12:21:34;;;;;;;18.38;7.70;;;;;;;;;;5019898;28;20108;-70
2021/04/29 12:24:01;;;;;;;18.52;8.05;;;;;;;;;;5025779;28;20033;-70
2021/04/29 12:26:30;;;;;;;18.83;7.05;;;;;;;;;;5032915;28;20033;-70
2021/04/29 12:28:59;;;;;;;18.27;8.02;;;;;;;;;;5026513;28;20543;-70
2021/04/29 12:31:25;;;;;;;14.05;6.93;;;;;;;;;;5021104;28;20096;-71
2021/04/29 12:33:51;;;;;;;13.82;6.90;;;;;;;;;;5028425;28;20105;-71
2021/04/29 12:36:17;;;;;;;23.63;8.10;;;;;;;;;;5026294;28;20109;-70
2021/04/29 12:38:43;;;;;;;23.33;7.70;;;;;;;;;;5021691;28;20030;-70
2021/04/29 12:41:09;;;;;;;18.10;8.13;;;;;;;;;;5019479;28;20034;-70
2021/04/29 12:43:35;;;;;;;21.17;7.68;;;;;;;;;;5025910;28;20029;-70
2021/04/29 12:46:03;;;;;;;12.93;6.65;;;;;;;;;;5023396;28;20032;-71
2021/04/29 12:48:31;;;;;;;14.38;7.55;;;;;;;;;;5020593;28;20021;-70
2021/04/29 12:51:08;;;;;;;16.77;6.85;;;;;;;;;;5039844;28;20040;-70
2021/04/29 12:53:34;;;;;;;15.40;5.90;;;;;;;;;;5028501;28;20021;-72
2021/04/29 12:56:00;;;;;;;12.05;5.10;;;;;;;;;;5001192;28;20134;-70
2021/04/29 12:58:28;;;;;;;8.68;5.05;;;;;;;;;;5005046;28;20026;-69
2021/04/29 13:00:54;;;;;;;11.05;5.10;;;;;;;;;;5010263;28;20021;-68
2021/04/29 13:03:32;;;;;;;10.52;4.88;;;;;;;;;;5000148;28;20009;-69
2021/04/29 13:06:02;;;;;;;10.57;5.18;;;;;;;;;;5002634;28;20072;-69
2021/04/29 13:08:28;;;;;;;17.10;5.00;;;;;;;;;;5015241;28;20029;-69
2021/04/29 13:10:54;;;;;;;15.98;6.25;;;;;;;;;;5014968;28;20026;-69
2021/04/29 13:13:28;;;;;;;11.48;6.32;;;;;;;;;;5013415;28;20115;-69
2021/04/29 13:15:54;;;;;;;14.02;6.68;;;;;;;;;;5008277;28;20066;-69
2021/04/29 13:18:24;;;;;;;14.05;6.32;;;;;;;;;;5011975;28;20026;-69
2021/04/29 13:20:50;;;;;;;16.02;5.70;;;;;;;;;;4996966;28;20093;-69
2021/04/29 13:23:16;;;;;;;15.00;6.43;;;;;;;;;;4999456;28;20118;-69
2021/04/29 13:25:43;;;;;;;10.55;4.90;;;;;;;;;;5004084;28;20045;-69
2021/04/29 13:28:09;;;;;;;7.15;4.45;;;;;;;;;;4999573;28;20081;-72
2021/04/29 13:30:35;;;;;;;6.90;4.00;;;;;;;;;;5000341;28;20027;-68
2021/04/29 13:33:01;;;;;;;6.25;3.95;;;;;;;;;;4997727;28;20036;-69
2021/04/29 13:35:27;;;;;;;8.10;4.03;;;;;;;;;;5011016;28;20026;-69
2021/04/29 13:37:52;;;;;;;9.10;4.00;;;;;;;;;;5002953;28;20029;-69
2021/04/29 13:40:21;;;;;;;5.68;3.50;;;;;;;;;;5007439;28;20057;-69
2021/04/29 13:42:47;;;;;;;10.48;3.67;;;;;;;;;;4994428;28;20041;-69
2021/04/29 13:45:13;;;;;;;8.98;4.22;;;;;;;;;;4994254;28;20443;-69
2021/04/29 13:47:39;;;;;;;7.32;4.65;;;;;;;;;;4995364;28;20440;-69
2021/04/29 13:50:06;;;;;;;6.40;3.83;;;;;;;;;;4995343;28;20090;-69
2021/04/29 13:52:32;;;;;;;8.55;4.70;;;;;;;;;;4996568;28;20022;-69
2021/04/29 13:54:58;;;;;;;4.63;3.30;;;;;;;;;;4994976;28;20397;-69
2021/04/29 13:57:24;;;;;;;5.75;3.78;;;;;;;;;;4998116;28;20781;-69
2021/04/29 13:59:50;;;;;;;8.55;4.28;;;;;;;;;;4994625;28;20027;-69
2021/04/29 14:02:16;;;;;;;9.85;5.10;;;;;;;;;;5009953;28;20034;-69
2021/04/29 14:04:42;;;;;;;7.25;4.55;;;;;;;;;;5015587;28;20026;-69
2021/04/29 14:07:10;;;;;;;9.00;5.00;;;;;;;;;;5003343;28;20081;-69
2021/04/29 14:09:36;;;;;;;10.75;4.68;;;;;;;;;;4999565;28;20018;-69
2021/04/29 14:12:03;;;;;;;7.05;4.47;;;;;;;;;;4995288;28;20159;-69
2021/04/29 14:14:28;;;;;;;6.55;4.72;;;;;;;;;;4992895;28;20022;-69
2021/04/29 14:16:54;;;;;;;5.95;4.47;;;;;;;;;;4996473;28;20444;-69
2021/04/29 14:19:20;;;;;;;11.75;4.10;;;;;;;;;;4999213;28;20484;-69
2021/04/29 14:21:46;;;;;;;10.95;4.85;;;;;;;;;;4998870;28;20101;-69